createdAt,value
2022-12-13T00:02:20.286Z,37.80
2022-12-13T00:04:50.032Z,43.27
2022-12-13T00:07:19.765Z,37.03
2022-12-13T00:09:49.515Z,39.30
2022-12-13T00:12:19.267Z,38.17
2022-12-13T00:14:49.025Z,40.50
2022-12-13T00:17:18.750Z,46.40
2022-12-13T00:19:49.214Z,38.03
2022-12-13T00:22:19.218Z,46.63
2022-12-13T00:24:48.971Z,49.03
2022-12-13T00:27:18.712Z,39.33
2022-12-13T00:29:49.415Z,37.60
2022-12-13T00:32:19.081Z,36.93
2022-12-13T00:34:48.842Z,40.73
2022-12-13T00:37:18.586Z,38.97
2022-12-13T00:39:48.630Z,34.73
2022-12-13T00:42:18.130Z,35.27
2022-12-13T00:44:47.873Z,34.90
2022-12-13T00:47:18.913Z,35.67
2022-12-13T00:49:48.653Z,33.43
2022-12-13T00:52:18.090Z,42.20
2022-12-13T00:54:47.839Z,30.57
2022-12-13T00:57:17.573Z,36.33
2022-12-13T00:59:47.995Z,37.50
2022-12-13T01:02:17.514Z,38.97
2022-12-13T01:04:49.029Z,40.33
2022-12-13T01:07:18.767Z,40.90
2022-12-13T01:09:48.506Z,33.60
2022-12-13T01:12:18.321Z,34.83
2022-12-13T01:14:53.062Z,33.53
2022-12-13T01:17:19.575Z,31.57
2022-12-13T01:19:50.578Z,34.07
2022-12-13T01:22:20.402Z,32.37
2022-12-13T01:24:50.199Z,39.43
2022-12-13T01:27:19.938Z,39.00
2022-12-13T01:29:49.672Z,41.67
2022-12-13T01:32:19.413Z,36.03
2022-12-13T01:34:49.462Z,32.17
2022-12-13T01:37:20.370Z,37.73
2022-12-13T01:39:51.812Z,33.87
2022-12-13T01:42:23.205Z,34.67
2022-12-13T01:45:02.498Z,36.47
2022-12-13T01:47:35.370Z,36.83
2022-12-13T01:50:09.723Z,28.47
2022-12-13T01:52:40.596Z,34.10
2022-12-13T01:55:12.846Z,30.77
2022-12-13T01:57:45.889Z,32.30
2022-12-13T02:00:16.769Z,32.70
2022-12-13T02:02:48.452Z,34.80
2022-12-13T02:05:29.672Z,36.00
2022-12-13T02:08:01.058Z,29.02
2022-12-13T02:10:31.956Z,32.67
2022-12-13T02:13:01.704Z,33.93
2022-12-13T02:15:36.931Z,38.33
2022-12-13T02:18:23.132Z,37.85
2022-12-13T02:21:15.478Z,36.55
2022-12-13T02:24:08.766Z,37.60
2022-12-13T02:26:43.158Z,28.20
2022-12-13T02:29:30.540Z,34.67
2022-12-13T02:32:07.537Z,36.38
2022-12-13T02:34:52.125Z,35.77
2022-12-13T02:37:25.062Z,36.30
2022-12-13T02:40:03.752Z,36.30
2022-12-13T02:42:36.556Z,42.07
2022-12-13T02:45:20.673Z,41.63
2022-12-13T02:47:50.098Z,36.57
2022-12-13T02:50:22.287Z,34.73
2022-12-13T02:52:53.165Z,43.33
2022-12-13T02:55:27.915Z,38.33
2022-12-13T02:57:54.505Z,34.33
2022-12-13T03:00:32.641Z,38.63
2022-12-13T03:03:23.202Z,41.77
2022-12-13T03:06:16.580Z,32.40
2022-12-13T03:08:52.449Z,42.20
2022-12-13T03:11:24.854Z,34.78
2022-12-13T03:14:00.511Z,39.07
2022-12-13T03:16:36.633Z,34.40
2022-12-13T03:19:09.233Z,38.85
2022-12-13T03:21:47.339Z,39.97
2022-12-13T03:24:13.394Z,35.53
2022-12-13T03:26:43.211Z,37.90
2022-12-13T03:29:13.125Z,34.23
2022-12-13T03:31:45.081Z,33.15
2022-12-13T03:34:14.846Z,37.17
2022-12-13T03:36:46.648Z,37.05
2022-12-13T03:39:16.692Z,37.30
2022-12-13T03:41:46.608Z,38.93
2022-12-13T03:44:16.366Z,31.20
2022-12-13T03:46:46.723Z,34.03
2022-12-13T03:49:17.496Z,29.00
2022-12-13T03:51:47.796Z,34.83
2022-12-13T03:54:19.109Z,35.53
2022-12-13T03:56:48.840Z,36.67
2022-12-13T03:59:18.702Z,29.63
2022-12-13T04:01:48.581Z,34.00
2022-12-13T04:04:18.138Z,35.83
2022-12-13T04:06:47.889Z,31.80
2022-12-13T04:09:17.627Z,34.03
2022-12-13T04:12:05.190Z,40.43
2022-12-13T04:14:35.797Z,36.17
2022-12-13T04:17:05.537Z,30.73
2022-12-13T04:19:35.308Z,32.23
2022-12-13T04:22:06.614Z,34.17
2022-12-13T04:24:37.615Z,37.30
2022-12-13T04:27:07.658Z,38.05
2022-12-13T04:29:37.145Z,44.35
2022-12-13T04:32:25.969Z,38.10
2022-12-13T04:34:39.901Z,41.63
2022-12-13T04:37:10.704Z,36.07
2022-12-13T04:39:40.453Z,44.83
2022-12-13T04:42:12.026Z,34.10
2022-12-13T04:44:46.029Z,34.93
2022-12-13T04:47:13.212Z,32.63
2022-12-13T04:49:43.041Z,38.47
2022-12-13T04:52:12.839Z,33.53
2022-12-13T04:54:44.569Z,40.40
2022-12-13T04:57:14.769Z,36.58
2022-12-13T04:59:46.137Z,33.57
2022-12-13T05:02:23.364Z,43.45
2022-12-13T05:04:47.499Z,36.77
2022-12-13T05:07:18.952Z,37.00
2022-12-13T05:09:48.688Z,34.00
2022-12-13T05:12:22.513Z,36.05
2022-12-13T05:14:49.873Z,33.47
2022-12-13T05:17:19.429Z,34.90
2022-12-13T05:19:49.172Z,35.90
2022-12-13T05:22:20.840Z,35.40
2022-12-13T05:24:50.946Z,36.13
2022-12-13T05:27:24.007Z,36.47
2022-12-13T05:29:57.669Z,37.43
2022-12-13T05:32:23.459Z,35.33
2022-12-13T05:34:53.160Z,37.83
2022-12-13T05:37:22.908Z,37.07
2022-12-13T05:39:52.640Z,31.47
2022-12-13T05:42:22.220Z,36.95
2022-12-13T05:44:54.168Z,36.97
2022-12-13T05:47:23.936Z,38.50
2022-12-13T05:49:53.909Z,34.37
2022-12-13T05:52:30.364Z,37.67
2022-12-13T05:55:00.996Z,42.30
2022-12-13T05:57:30.585Z,31.80
2022-12-13T06:00:00.644Z,31.82
2022-12-13T06:02:30.557Z,39.83
2022-12-13T06:05:00.400Z,33.97
2022-12-13T06:07:30.145Z,41.40
2022-12-13T06:10:10.644Z,34.63
2022-12-13T06:12:32.729Z,42.55
2022-12-13T06:15:02.982Z,33.73
2022-12-13T06:17:36.931Z,44.50
2022-12-13T06:20:23.372Z,37.67
2022-12-13T06:22:40.143Z,37.60
2022-12-13T06:25:31.170Z,44.70
2022-12-13T06:27:41.758Z,46.87
2022-12-13T06:30:13.375Z,42.53
2022-12-13T06:32:44.095Z,41.63
2022-12-13T06:35:29.038Z,50.03
2022-12-13T06:37:45.159Z,50.23
2022-12-13T06:40:17.643Z,55.77
2022-12-13T06:42:46.428Z,50.27
2022-12-13T06:45:15.926Z,44.93
2022-12-13T06:47:46.023Z,50.57
2022-12-13T06:50:15.784Z,43.15
2022-12-13T06:52:47.508Z,48.00
2022-12-13T06:55:23.509Z,49.67
2022-12-13T06:57:49.215Z,51.70
2022-12-13T07:00:22.515Z,43.28
2022-12-13T07:02:55.681Z,41.03
2022-12-13T07:05:27.239Z,48.98
2022-12-13T07:07:57.039Z,47.67
2022-12-13T07:10:26.503Z,56.08
2022-12-13T07:12:56.553Z,46.02
2022-12-13T07:15:26.482Z,52.70
2022-12-13T07:17:56.277Z,55.60
2022-12-13T07:20:25.721Z,50.40
2022-12-13T07:22:58.821Z,46.47
2022-12-13T07:25:29.469Z,48.37
2022-12-13T07:28:02.866Z,51.80
2022-12-13T07:30:40.653Z,59.27
2022-12-13T07:33:07.900Z,58.17
2022-12-13T07:35:38.391Z,63.00
2022-12-13T07:38:11.373Z,57.58
2022-12-13T07:40:42.132Z,47.27
2022-12-13T07:43:12.026Z,51.10
2022-12-13T07:45:41.774Z,52.87
2022-12-13T07:48:11.594Z,53.80
2022-12-13T07:50:41.415Z,59.30
2022-12-13T07:53:11.534Z,60.00
2022-12-13T07:55:41.279Z,55.33
2022-12-13T07:58:14.007Z,54.46
2022-12-13T08:00:46.852Z,58.63
2022-12-13T08:03:24.404Z,55.28
2022-12-13T08:05:49.305Z,61.40
2022-12-13T08:08:20.754Z,54.50
2022-12-13T08:10:50.493Z,65.97
2022-12-13T08:13:20.933Z,60.95
2022-12-13T08:15:51.286Z,61.35
2022-12-13T08:18:20.987Z,65.00
2022-12-13T08:20:51.024Z,56.00
2022-12-13T08:23:21.033Z,58.77
2022-12-13T08:25:55.109Z,69.70
2022-12-13T08:28:26.062Z,68.07
2022-12-13T08:30:55.965Z,71.93
2022-12-13T08:33:25.698Z,64.27
2022-12-13T08:35:55.437Z,60.27
2022-12-13T08:38:25.529Z,57.45
2022-12-13T08:40:56.769Z,56.03
2022-12-13T08:43:26.578Z,67.03
2022-12-13T08:46:01.242Z,64.53
2022-12-13T08:48:28.289Z,68.20
2022-12-13T08:51:03.566Z,65.17
2022-12-13T08:53:40.822Z,61.37
2022-12-13T08:56:10.665Z,61.77
2022-12-13T08:58:41.065Z,67.70
2022-12-13T09:01:12.359Z,64.07
2022-12-13T09:03:42.153Z,69.60
2022-12-13T09:06:14.788Z,60.83
2022-12-13T09:08:51.753Z,64.53
2022-12-13T09:11:20.790Z,61.00
2022-12-13T09:13:48.777Z,72.90
2022-12-13T09:16:24.295Z,65.87
2022-12-13T09:18:56.202Z,62.67
2022-12-13T09:21:30.942Z,59.07
2022-12-13T09:24:01.762Z,64.93
2022-12-13T09:26:37.717Z,62.53
2022-12-13T09:29:10.533Z,62.03
2022-12-13T09:31:34.710Z,66.10
2022-12-13T09:34:06.399Z,62.17
2022-12-13T09:36:36.628Z,59.40
2022-12-13T09:39:06.827Z,65.50
2022-12-13T09:41:40.728Z,54.67
2022-12-13T09:44:32.968Z,54.04
2022-12-13T09:47:03.970Z,55.00
2022-12-13T09:49:38.590Z,65.95
2022-12-13T09:52:21.194Z,59.27
2022-12-13T09:54:49.221Z,54.73
2022-12-13T09:57:32.401Z,56.77
2022-12-13T09:59:58.648Z,55.92
2022-12-13T10:02:31.689Z,59.50
2022-12-13T10:05:34.287Z,59.97
2022-12-13T10:08:02.274Z,51.50
2022-12-13T10:10:31.949Z,56.53
2022-12-13T10:13:16.195Z,58.33
2022-12-13T10:15:49.064Z,53.57
2022-12-13T10:18:21.870Z,55.43
2022-12-13T10:20:51.964Z,49.50
2022-12-13T10:24:06.955Z,53.30
2022-12-13T10:26:03.331Z,51.00
2022-12-13T10:28:33.000Z,60.27
2022-12-13T10:31:03.425Z,54.10
2022-12-13T10:33:35.728Z,53.03
2022-12-13T10:36:11.090Z,53.80
2022-12-13T10:38:43.352Z,50.60
2022-12-13T10:41:38.551Z,52.10
2022-12-13T10:44:15.373Z,48.10
2022-12-13T10:46:50.868Z,52.07
2022-12-13T10:49:23.875Z,48.87
2022-12-13T10:51:54.730Z,59.17
2022-12-13T10:54:38.347Z,55.67
2022-12-13T10:57:04.471Z,54.10
2022-12-13T10:59:40.121Z,48.65
2022-12-13T11:02:36.263Z,52.70
2022-12-13T11:05:28.260Z,49.60
2022-12-13T11:08:01.118Z,49.73
2022-12-13T11:10:31.184Z,54.37
2022-12-13T11:13:06.288Z,48.97
2022-12-13T11:15:39.100Z,49.17
2022-12-13T11:18:14.064Z,54.55
2022-12-13T11:20:55.980Z,51.63
2022-12-13T11:23:34.286Z,47.37
2022-12-13T11:26:12.102Z,48.35
2022-12-13T11:28:47.819Z,52.03
2022-12-13T11:31:36.962Z,48.85
2022-12-13T11:34:22.717Z,45.83
2022-12-13T11:37:04.305Z,50.28
2022-12-13T11:39:39.888Z,46.73
2022-12-13T11:42:19.853Z,51.55
2022-12-13T11:44:58.481Z,47.67
2022-12-13T11:47:34.079Z,52.03
2022-12-13T11:50:08.329Z,49.30
2022-12-13T11:52:44.584Z,44.67
2022-12-13T11:55:22.654Z,45.87
2022-12-13T11:58:04.942Z,45.87
2022-12-13T12:00:49.284Z,51.30
2022-12-13T12:03:24.702Z,46.93
2022-12-13T12:06:11.960Z,46.57
2022-12-13T12:08:47.947Z,48.90
2022-12-13T12:11:38.891Z,45.43
2022-12-13T12:14:14.087Z,49.00
2022-12-13T12:16:56.225Z,42.53
2022-12-13T12:19:33.007Z,44.30
2022-12-13T12:22:17.231Z,58.90
2022-12-13T12:25:05.060Z,51.90
2022-12-13T12:27:37.831Z,48.97
2022-12-13T12:30:13.594Z,47.62
2022-12-13T12:35:23.931Z,46.58
2022-12-13T12:38:05.609Z,40.50
2022-12-13T12:43:38.218Z,43.47
2022-12-13T12:46:38.449Z,47.57
2022-12-13T12:49:12.396Z,45.20
2022-12-13T12:51:57.576Z,44.05
2022-12-13T12:54:35.398Z,45.10
2022-12-13T12:57:19.699Z,42.03
2022-12-13T12:59:56.777Z,39.10
2022-12-13T13:02:29.053Z,45.43
2022-12-13T13:05:01.571Z,48.50
2022-12-13T13:07:40.061Z,45.45
2022-12-13T13:10:26.092Z,43.52
2022-12-13T13:12:43.318Z,42.20
2022-12-13T13:15:35.666Z,41.93
2022-12-13T13:18:28.033Z,41.83
2022-12-13T13:21:26.490Z,42.77
2022-12-13T13:24:11.268Z,44.23
2022-12-13T13:26:43.499Z,42.23
2022-12-13T13:29:28.737Z,42.93
2022-12-13T13:32:28.520Z,42.70
2022-12-13T13:34:48.184Z,43.70
2022-12-13T13:37:24.653Z,41.90
2022-12-13T13:40:00.066Z,40.10
2022-12-13T13:42:30.658Z,43.80
2022-12-13T13:45:23.558Z,44.50
2022-12-13T13:48:23.729Z,41.07
2022-12-13T13:50:57.040Z,42.77
2022-12-13T13:53:32.521Z,46.50
2022-12-13T13:56:05.009Z,46.63
2022-12-13T13:58:54.076Z,44.63
2022-12-13T14:01:45.949Z,42.50
2022-12-13T14:04:38.263Z,41.02
2022-12-13T14:07:18.868Z,48.67
2022-12-13T14:10:08.184Z,48.87
2022-12-13T14:13:06.249Z,49.90
2022-12-13T14:16:00.416Z,38.75
2022-12-13T14:18:50.975Z,40.57
2022-12-13T14:21:41.522Z,47.60
2022-12-13T14:24:23.163Z,47.18
2022-12-13T14:27:01.893Z,46.47
2022-12-13T14:29:37.606Z,43.30
2022-12-13T14:35:26.259Z,47.30
2022-12-13T14:37:39.736Z,46.37
2022-12-13T14:40:32.633Z,38.27
2022-12-13T14:43:02.530Z,45.23
2022-12-13T14:45:36.411Z,52.63
2022-12-13T14:48:28.682Z,45.75
2022-12-13T14:50:50.603Z,56.65
2022-12-13T14:53:26.752Z,47.37
2022-12-13T14:56:08.685Z,47.37
2022-12-13T14:58:39.486Z,42.40
2022-12-13T15:01:29.419Z,44.40
2022-12-13T15:04:22.628Z,47.13
2022-12-13T15:07:04.417Z,45.52
2022-12-13T15:09:40.150Z,51.63
2022-12-13T15:14:46.918Z,44.63
2022-12-13T15:17:36.598Z,40.20
2022-12-13T15:20:30.859Z,41.62
2022-12-13T15:23:08.325Z,48.47
2022-12-13T15:25:39.618Z,51.50
2022-12-13T15:28:18.222Z,45.43
2022-12-13T15:33:21.065Z,49.40
2022-12-13T15:35:53.402Z,43.83
2022-12-13T15:38:28.327Z,40.10
2022-12-13T15:40:54.957Z,46.35
2022-12-13T15:43:28.071Z,46.13
2022-12-13T15:45:58.084Z,49.67
2022-12-13T15:48:33.835Z,47.80
2022-12-13T15:51:28.727Z,45.95
2022-12-13T15:54:09.354Z,46.40
2022-12-13T15:56:44.108Z,50.47
2022-12-13T15:59:25.534Z,53.20
2022-12-13T16:01:58.423Z,48.23
2022-12-13T16:04:30.017Z,47.05
2022-12-13T16:07:01.649Z,42.50
2022-12-13T16:09:34.457Z,51.07
2022-12-13T16:12:07.869Z,50.48
2022-12-13T16:14:40.926Z,45.20
2022-12-13T16:17:24.902Z,48.30
2022-12-13T16:19:58.335Z,54.93
2022-12-13T16:22:27.849Z,43.37
2022-12-13T16:24:57.761Z,47.63
2022-12-13T16:27:27.501Z,50.27
2022-12-13T16:29:57.538Z,58.77
2022-12-13T16:32:27.235Z,63.83
2022-12-13T16:34:56.981Z,96.53
2022-12-13T16:37:27.620Z,57.20
2022-12-13T16:39:57.137Z,59.10
2022-12-13T16:42:27.324Z,56.70
2022-12-13T16:45:32.465Z,54.17
2022-12-13T16:47:41.790Z,48.37
2022-12-13T16:50:04.323Z,48.95
2022-12-13T16:52:34.069Z,47.47
2022-12-13T16:55:03.820Z,48.90
2022-12-13T16:57:33.612Z,50.37
2022-12-13T17:00:03.984Z,50.48
2022-12-13T17:02:33.793Z,45.93
2022-12-13T17:05:04.014Z,43.27
2022-12-13T17:07:35.332Z,49.73
2022-12-13T17:10:06.869Z,47.80
2022-12-13T17:12:36.688Z,45.63
2022-12-13T17:15:09.088Z,44.80
2022-12-13T17:17:40.541Z,48.57
2022-12-13T17:20:18.081Z,52.40
2022-12-13T17:22:48.039Z,48.20
2022-12-13T17:25:17.889Z,47.37
2022-12-13T17:27:47.644Z,39.73
2022-12-13T17:30:19.014Z,44.08
2022-12-13T17:32:48.835Z,41.80
2022-12-13T17:35:19.095Z,41.90
2022-12-13T17:37:48.911Z,48.63
2022-12-13T17:40:18.885Z,41.70
2022-12-13T17:42:52.502Z,45.00
2022-12-13T17:45:23.033Z,48.90
2022-12-13T17:47:52.778Z,45.87
2022-12-13T17:50:22.277Z,40.50
2022-12-13T17:52:52.012Z,44.20
2022-12-13T17:55:21.773Z,39.58
2022-12-13T17:57:51.818Z,39.58
2022-12-13T18:00:23.421Z,43.70
2022-12-13T18:02:55.433Z,42.95
2022-12-13T18:05:27.577Z,38.50
2022-12-13T18:07:57.616Z,44.20
2022-12-13T18:10:29.977Z,41.67
2022-12-13T18:12:58.941Z,87.33
2022-12-13T18:15:28.784Z,44.53
2022-12-13T18:18:11.329Z,42.40
2022-12-13T18:20:30.275Z,46.20
2022-12-13T18:23:00.019Z,85.60
2022-12-13T18:25:30.733Z,80.10
2022-12-13T18:28:01.304Z,79.03
2022-12-13T18:30:32.630Z,55.53
2022-12-13T18:33:02.677Z,62.53
2022-12-13T18:35:32.610Z,64.40
2022-12-13T18:38:02.332Z,49.13
2022-12-13T18:40:32.451Z,50.78
2022-12-13T18:43:02.261Z,51.50
2022-12-13T18:45:32.068Z,45.43
2022-12-13T18:48:01.882Z,46.37
2022-12-13T18:50:31.632Z,42.70
2022-12-13T18:53:01.139Z,44.00
2022-12-13T18:55:31.374Z,42.55
2022-12-13T18:58:01.109Z,47.13
2022-12-13T19:00:30.884Z,41.53
2022-12-13T19:03:01.344Z,110.50
2022-12-13T19:05:31.104Z,69.53
2022-12-13T19:08:00.844Z,63.83
2022-12-13T19:10:30.630Z,56.13
2022-12-13T19:13:00.888Z,54.53
2022-12-13T19:15:30.698Z,49.17
2022-12-13T19:18:00.469Z,48.07
2022-12-13T19:20:31.022Z,46.83
2022-12-13T19:23:00.756Z,41.47
2022-12-13T19:25:30.500Z,42.40
2022-12-13T19:28:00.274Z,52.33
2022-12-13T19:30:29.791Z,41.90
2022-12-13T19:32:59.837Z,41.45
2022-12-13T19:35:29.885Z,42.78
2022-12-13T19:38:00.103Z,42.48
2022-12-13T19:40:29.929Z,39.20
2022-12-13T19:42:59.663Z,38.13
2022-12-13T19:45:29.411Z,43.23
2022-12-13T19:47:59.465Z,42.43
2022-12-13T19:50:30.249Z,43.55
2022-12-13T19:53:00.073Z,43.40
2022-12-13T19:55:29.813Z,40.03
2022-12-13T19:58:00.705Z,44.45
2022-12-13T20:00:30.544Z,36.27
2022-12-13T20:03:00.314Z,36.87
2022-12-13T20:05:30.061Z,36.33
2022-12-13T20:08:00.359Z,39.35
2022-12-13T20:10:30.132Z,39.88
2022-12-13T20:13:00.235Z,42.65
2022-12-13T20:15:30.648Z,35.93
2022-12-13T20:18:00.936Z,37.63
2022-12-13T20:20:47.039Z,46.25
2022-12-13T20:23:02.428Z,37.33
2022-12-13T20:25:32.178Z,40.60
2022-12-13T20:28:01.926Z,39.33
2022-12-13T20:30:32.850Z,42.17
2022-12-13T20:33:02.691Z,43.07
2022-12-13T20:35:32.428Z,38.77
2022-12-13T20:38:03.342Z,39.67
2022-12-13T20:40:33.655Z,38.13
2022-12-13T20:43:03.396Z,35.40
2022-12-13T20:45:33.772Z,32.57
2022-12-13T20:48:03.530Z,40.13
2022-12-13T20:50:32.963Z,40.52
2022-12-13T20:53:03.012Z,37.10
2022-12-13T20:55:35.345Z,36.10
2022-12-13T20:58:06.368Z,32.50
2022-12-13T21:00:36.200Z,43.57
2022-12-13T21:03:06.007Z,34.87
2022-12-13T21:05:35.743Z,37.03
2022-12-13T21:08:24.614Z,35.38
2022-12-13T21:11:04.929Z,38.20
2022-12-13T21:16:02.491Z,30.85
2022-12-13T21:18:32.294Z,30.33
2022-12-13T21:21:02.111Z,34.93
2022-12-13T21:23:31.915Z,27.93
2022-12-13T21:26:01.681Z,30.80
2022-12-13T21:28:32.005Z,29.47
2022-12-13T21:31:04.556Z,33.57
2022-12-13T21:33:35.629Z,34.03
2022-12-13T21:36:16.676Z,31.53
2022-12-13T21:38:46.425Z,28.10
2022-12-13T21:41:16.323Z,30.10
2022-12-13T21:43:48.267Z,28.90
2022-12-13T21:46:19.859Z,26.35
2022-12-13T21:48:50.928Z,37.77
2022-12-13T21:51:23.512Z,27.75
2022-12-13T21:53:54.699Z,28.95
2022-12-13T21:56:44.687Z,31.03
2022-12-13T21:59:20.669Z,27.77
2022-12-13T22:02:12.774Z,35.30
2022-12-13T22:04:48.485Z,29.53
2022-12-13T22:07:20.503Z,27.05
2022-12-13T22:09:51.507Z,24.27
2022-12-13T22:12:29.922Z,29.75
2022-12-13T22:14:59.725Z,25.63
2022-12-13T22:17:35.192Z,26.47
2022-12-13T22:20:02.332Z,25.77
2022-12-13T22:22:33.478Z,32.20
2022-12-13T22:25:04.050Z,27.20
2022-12-13T22:27:33.811Z,29.50
2022-12-13T22:30:03.561Z,30.60
2022-12-13T22:32:33.876Z,29.87
2022-12-13T22:35:04.725Z,32.33
2022-12-13T22:37:34.794Z,29.12
2022-12-13T22:40:07.841Z,36.27
2022-12-13T22:42:37.637Z,29.43
2022-12-13T22:45:08.776Z,33.00
2022-12-13T22:47:38.519Z,33.23
2022-12-13T22:50:11.600Z,37.26
2022-12-13T22:52:41.321Z,36.57
2022-12-13T22:55:10.979Z,31.35
2022-12-13T22:57:40.715Z,30.27
2022-12-13T23:00:13.013Z,29.85
2022-12-13T23:02:42.817Z,31.93
2022-12-13T23:05:12.580Z,28.70
2022-12-13T23:07:42.344Z,31.23
2022-12-13T23:10:15.108Z,33.80
2022-12-13T23:13:03.243Z,29.90
2022-12-13T23:15:34.484Z,26.10
2022-12-13T23:18:04.310Z,26.83
2022-12-13T23:20:35.240Z,32.95
2022-12-13T23:23:05.077Z,26.07
2022-12-13T23:25:34.822Z,31.93
2022-12-13T23:28:04.851Z,32.90
2022-12-13T23:30:34.383Z,26.80
2022-12-13T23:33:04.193Z,29.60
2022-12-13T23:35:34.008Z,25.08
2022-12-13T23:38:03.752Z,27.67
2022-12-13T23:40:33.513Z,31.57
2022-12-13T23:43:03.000Z,22.35
2022-12-13T23:45:32.749Z,23.87
2022-12-13T23:48:02.481Z,22.77
2022-12-13T23:50:31.935Z,23.57
2022-12-13T23:53:01.658Z,26.10
2022-12-13T23:55:31.394Z,22.23
2022-12-13T23:58:01.153Z,25.37
